Time;durP1;ratioP1;P1;durP2;ratioP2;P2;SDS_P1;SDS_P2;PMS_P1;PMS_P2;Temp;Humidity;BMP_temperature;BMP_pressure;BME280_temperature;BME280_humidity;BME280_pressure;Samples;Min_cycle;Max_cycle;Signal;HPM_P1;HPM_P2
2023/05/26 00:00:48;;;;;;;;;;;;;;;20.53;58.99;99575.69;5093721;28;19920;-36
2023/05/26 00:03:13;;;;;;;;;;;;;;;20.01;60.75;99576.78;5093418;28;20348;-37
2023/05/26 00:05:40;;;;;;;;;;;;;;;19.92;61.67;99571.13;5093591;28;19927;-37
2023/05/26 00:08:05;;;;;;;;;;;;;;;19.79;61.67;99569.75;5093386;28;19955;-37
2023/05/26 00:10:30;;;;;;;;;;;;;;;19.80;62.08;99575.97;5093320;28;19951;-36
2023/05/26 00:12:56;;;;;;;;;;;;;;;20.21;60.88;99584.91;5093206;28;20323;-36
2023/05/26 00:15:21;;;;;;;;;;;;;;;19.88;61.76;99568.16;5093135;28;19920;-36
2023/05/26 00:17:47;;;;;;;;;;;;;;;19.87;62.13;99580.03;5093315;28;20023;-36
2023/05/26 00:20:12;;;;;;;;;;;;;;;19.92;62.24;99579.22;5093172;28;20231;-36
2023/05/26 00:22:37;;;;;;;;;;;;;;;19.73;62.71;99576.25;5091954;28;19912;-36
2023/05/26 00:25:03;;;;;;;;;;;;;;;20.21;61.70;99573.28;5092877;28;19912;-36
2023/05/26 00:27:28;;;;;;;;;;;;;;;19.87;62.71;99577.31;5092826;28;19916;-36
2023/05/26 00:29:54;;;;;;;;;;;;;;;20.03;62.09;99571.94;5092794;28;19931;-36
2023/05/26 00:32:19;;;;;;;;;;;;;;;20.16;61.25;99581.38;5092732;28;19912;-36
2023/05/26 00:34:44;;;;;;;;;;;;;;;19.98;62.16;99580.03;5093061;28;19913;-36
2023/05/26 00:37:10;;;;;;;;;;;;;;;20.15;62.01;99585.19;5093002;28;19920;-36
2023/05/26 00:39:35;;;;;;;;;;;;;;;20.31;61.44;99590.31;5092684;28;19935;-36
2023/05/26 00:42:01;;;;;;;;;;;;;;;20.48;61.20;99575.69;5092649;28;19981;-36
2023/05/26 00:44:26;;;;;;;;;;;;;;;20.63;60.61;99581.09;5092836;28;19961;-36
2023/05/26 00:46:52;;;;;;;;;;;;;;;20.46;60.73;99583.25;5092704;28;19969;-36
2023/05/26 00:49:17;;;;;;;;;;;;;;;20.64;60.26;99581.91;5092736;28;19912;-36
2023/05/26 00:51:44;;;;;;;;;;;;;;;20.73;59.91;99580.25;5092438;28;19940;-36
2023/05/26 00:54:09;;;;;;;;;;;;;;;20.36;60.82;99581.38;5092064;28;19951;-36
2023/05/26 00:56:35;;;;;;;;;;;;;;;20.53;60.15;99580.28;5092381;28;19912;-36
2023/05/26 00:59:02;;;;;;;;;;;;;;;20.66;59.86;99577.03;5092160;28;19912;-36
2023/05/26 01:01:28;;;;;;;;;;;;;;;20.66;59.79;99583.25;5092230;28;19919;-36
2023/05/26 01:03:54;;;;;;;;;;;;;;;20.78;59.35;99588.34;5092334;28;19918;-36
2023/05/26 01:06:22;;;;;;;;;;;;;;;20.79;59.42;99579.16;5092168;28;19973;-36
2023/05/26 01:08:47;;;;;;;;;;;;;;;20.68;59.98;99577.56;5091906;28;19912;-37
2023/05/26 01:11:28;;;;;;;;;;;;;;;20.65;59.57;99578.91;5092335;28;20268;-36
2023/05/26 01:13:55;;;;;;;;;;;;;;;20.77;59.55;99577.81;5092329;28;19916;-37
2023/05/26 01:16:22;;;;;;;;;;;;;;;20.66;59.98;99583.25;5092120;28;19912;-37
2023/05/26 01:19:12;;;;;;;;;;;;;;;20.67;59.84;99579.44;5092357;28;19916;-36
2023/05/26 01:21:39;;;;;;;;;;;;;;;20.27;60.77;99581.09;5071583;28;19924;-36
2023/05/26 01:24:15;;;;;;;;;;;;;;;20.13;60.79;99585.44;5091719;28;19912;-37
2023/05/26 01:26:48;;;;;;;;;;;;;;;20.24;60.36;99584.38;5091936;28;19912;-36
2023/05/26 01:29:15;;;;;;;;;;;;;;;20.32;59.96;99588.41;5091675;28;20363;-36
2023/05/26 01:31:40;;;;;;;;;;;;;;;20.34;59.85;99583.53;5091935;28;19917;-36
2023/05/26 01:34:06;;;;;;;;;;;;;;;20.36;59.61;99584.09;5091099;28;19923;-36
2023/05/26 01:36:31;;;;;;;;;;;;;;;20.31;60.06;99579.50;5091710;28;19927;-36
2023/05/26 01:38:57;;;;;;;;;;;;;;;20.00;61.12;99577.88;5091697;28;19912;-36
2023/05/26 01:41:28;;;;;;;;;;;;;;;20.14;60.11;99586.25;5091676;28;20269;-36
2023/05/26 01:44:08;;;;;;;;;;;;;;;20.24;59.89;99589.78;5091646;28;20315;-36
2023/05/26 01:46:48;;;;;;;;;;;;;;;20.16;60.64;99581.38;5091330;28;20007;-36
2023/05/26 01:49:14;;;;;;;;;;;;;;;20.08;60.35;99588.94;5091483;28;19911;-36
2023/05/26 01:51:42;;;;;;;;;;;;;;;20.02;60.95;99592.72;5091309;28;19973;-36
2023/05/26 01:54:11;;;;;;;;;;;;;;;20.07;60.48;99594.63;5091534;28;20002;-36
2023/05/26 01:56:36;;;;;;;;;;;;;;;19.98;60.66;99597.06;5091277;28;19912;-36
2023/05/26 01:59:02;;;;;;;;;;;;;;;19.69;61.61;99602.13;5091450;28;19912;-36
2023/05/26 02:01:28;;;;;;;;;;;;;;;19.86;61.43;99596.50;5091542;28;19919;-36
2023/05/26 02:03:54;;;;;;;;;;;;;;;19.96;60.81;99595.72;5090843;28;19912;-36
2023/05/26 02:06:19;;;;;;;;;;;;;;;20.11;60.15;99599.22;5091202;28;19916;-36
2023/05/26 02:08:44;;;;;;;;;;;;;;;20.13;60.18;99608.97;5091556;28;20399;-36
2023/05/26 02:11:10;;;;;;;;;;;;;;;19.69;61.02;99613.72;5091226;28;19993;-36
2023/05/26 02:13:35;;;;;;;;;;;;;;;19.65;61.03;99606.44;5090976;28;20307;-36
2023/05/26 02:16:00;;;;;;;;;;;;;;;19.82;61.18;99611.59;5091120;28;19945;-36
2023/05/26 02:18:25;;;;;;;;;;;;;;;19.92;60.84;99615.16;5090972;28;20367;-37
2023/05/26 02:20:51;;;;;;;;;;;;;;;19.97;60.58;99608.13;5091070;28;19959;-36
2023/05/26 02:23:16;;;;;;;;;;;;;;;20.00;60.35;99605.69;5091009;28;19908;-37
2023/05/26 02:25:41;;;;;;;;;;;;;;;20.00;60.43;99610.28;5090834;28;20440;-36
2023/05/26 02:28:07;;;;;;;;;;;;;;;20.04;60.03;99611.38;5090792;28;19936;-36
2023/05/26 02:30:32;;;;;;;;;;;;;;;19.84;61.03;99614.88;5090566;28;19916;-36
2023/05/26 02:32:58;;;;;;;;;;;;;;;19.89;60.76;99614.88;5090969;28;20391;-36
2023/05/26 02:35:23;;;;;;;;;;;;;;;19.96;60.54;99609.22;5090946;28;19946;-36
2023/05/26 02:37:48;;;;;;;;;;;;;;;19.74;60.54;99615.66;5091270;28;19920;-36
2023/05/26 02:40:13;;;;;;;;;;;;;;;19.62;61.17;99609.66;5091004;28;19916;-37
2023/05/26 02:42:39;;;;;;;;;;;;;;;19.33;61.83;99616.31;5090990;28;20002;-36
2023/05/26 02:45:05;;;;;;;;;;;;;;;19.09;62.63;99615.94;5092295;28;20336;-36
2023/05/26 02:47:30;;;;;;;;;;;;;;;19.08;63.29;99619.72;5095027;28;19958;-36
2023/05/26 02:49:55;;;;;;;;;;;;;;;18.76;64.54;99619.78;5095002;28;19912;-36
2023/05/26 02:52:22;;;;;;;;;;;;;;;18.82;64.60;99617.97;5093958;28;19939;-36
2023/05/26 02:54:47;;;;;;;;;;;;;;;19.01;64.27;99613.75;5094682;28;20356;-36
2023/05/26 02:57:13;;;;;;;;;;;;;;;19.21;63.63;99617.59;5094661;28;19919;-36
2023/05/26 02:59:38;;;;;;;;;;;;;;;19.16;63.60;99617.59;5094868;28;19947;-36
2023/05/26 03:02:03;;;;;;;;;;;;;;;18.89;64.90;99622.06;5094908;28;20394;-36
2023/05/26 03:04:29;;;;;;;;;;;;;;;19.00;64.40;99622.09;5094587;28;19926;-36
2023/05/26 03:06:54;;;;;;;;;;;;;;;19.18;64.21;99627.03;5094750;28;19922;-36
2023/05/26 03:09:20;;;;;;;;;;;;;;;19.04;64.43;99632.13;5094376;28;19920;-36
2023/05/26 03:11:45;;;;;;;;;;;;;;;19.31;63.44;99637.34;5094071;28;19985;-36
2023/05/26 03:14:10;;;;;;;;;;;;;;;19.45;63.25;99634.97;5094513;28;19916;-36
2023/05/26 03:16:36;;;;;;;;;;;;;;;19.43;63.08;99637.13;5094386;28;20011;-36
2023/05/26 03:19:03;;;;;;;;;;;;;;;19.41;62.99;99635.78;5094326;28;19919;-36
2023/05/26 03:21:28;;;;;;;;;;;;;;;19.29;63.53;99631.41;5094100;28;19970;-36
2023/05/26 03:23:53;;;;;;;;;;;;;;;19.42;63.53;99630.13;5094364;28;19912;-36
2023/05/26 03:26:20;;;;;;;;;;;;;;;19.33;63.26;99627.09;5094163;28;20323;-36
2023/05/26 03:28:46;;;;;;;;;;;;;;;19.24;63.92;99627.88;5094097;28;20287;-36
2023/05/26 03:31:11;;;;;;;;;;;;;;;19.32;63.47;99630.06;5093901;28;19916;-36
2023/05/26 03:33:36;;;;;;;;;;;;;;;19.43;63.02;99628.22;5093586;28;20065;-36
2023/05/26 03:36:02;;;;;;;;;;;;;;;19.18;63.80;99628.94;5093871;28;19919;-36
2023/05/26 03:38:27;;;;;;;;;;;;;;;19.20;63.75;99626.78;5094221;28;19916;-36
2023/05/26 03:40:52;;;;;;;;;;;;;;;19.30;63.38;99624.94;5094090;28;20001;-36
2023/05/26 03:43:18;;;;;;;;;;;;;;;19.19;63.97;99623.28;5093581;28;20027;-36
2023/05/26 03:45:43;;;;;;;;;;;;;;;19.26;63.31;99625.72;5093300;28;19916;-36
2023/05/26 03:48:12;;;;;;;;;;;;;;;19.08;64.30;99621.63;5093664;28;19926;-36
2023/05/26 03:50:37;;;;;;;;;;;;;;;19.31;63.45;99629.25;5093638;28;20291;-35
2023/05/26 03:53:03;;;;;;;;;;;;;;;19.17;64.27;99630.00;5093817;28;19916;-36
2023/05/26 03:55:28;;;;;;;;;;;;;;;19.51;79.35;99633.09;5093401;28;20075;-36
2023/05/26 03:57:53;;;;;;;;;;;;;;;19.75;67.14;99632.69;5093590;28;20020;-36
2023/05/26 04:00:19;;;;;;;;;;;;;;;19.78;66.48;99638.34;5093820;28;20007;-36
2023/05/26 04:02:44;;;;;;;;;;;;;;;19.73;65.52;99632.94;5093583;28;20348;-36
2023/05/26 04:05:09;;;;;;;;;;;;;;;20.05;65.04;99627.31;5093588;28;19912;-36
2023/05/26 04:07:34;;;;;;;;;;;;;;;19.92;64.68;99641.34;5094163;28;19920;-36
2023/05/26 04:10:00;;;;;;;;;;;;;;;19.92;67.17;99644.84;5093491;28;19924;-35
2023/05/26 04:12:25;;;;;;;;;;;;;;;20.14;61.34;99651.88;5093071;28;19954;-36
2023/05/26 04:14:50;;;;;;;;;;;;;;;20.32;60.19;99645.16;5093358;28;19912;-36
2023/05/26 04:17:16;;;;;;;;;;;;;;;19.90;61.43;99638.09;5092881;28;19943;-37
2023/05/26 04:19:41;;;;;;;;;;;;;;;19.38;62.93;99642.53;5092881;28;19999;-37
2023/05/26 04:22:06;;;;;;;;;;;;;;;19.25;62.92;99638.41;5092777;28;19916;-36
2023/05/26 04:24:32;;;;;;;;;;;;;;;19.36;62.15;99650.03;5092643;28;20000;-36
2023/05/26 04:26:57;;;;;;;;;;;;;;;19.13;62.53;99657.53;5093172;28;19951;-36
2023/05/26 04:29:23;;;;;;;;;;;;;;;18.90;64.01;99655.22;5092854;28;19920;-35
2023/05/26 04:31:48;;;;;;;;;;;;;;;19.31;63.63;99658.94;5093230;28;20008;-36
2023/05/26 04:34:13;;;;;;;;;;;;;;;19.09;63.25;99656.41;5092540;28;19916;-36
2023/05/26 04:36:39;;;;;;;;;;;;;;;19.80;61.36;99665.06;5093153;28;20332;-36
2023/05/26 04:39:05;;;;;;;;;;;;;;;20.04;60.90;99657.28;5093067;28;19912;-37
2023/05/26 04:41:32;;;;;;;;;;;;;;;20.20;61.02;99655.41;5091776;28;19969;-36
2023/05/26 04:43:58;;;;;;;;;;;;;;;20.30;60.01;99658.94;5086347;28;19956;-37
2023/05/26 04:46:23;;;;;;;;;;;;;;;20.61;63.16;99658.16;5092452;28;19919;-37
2023/05/26 04:48:49;;;;;;;;;;;;;;;21.07;58.65;99656.16;5092251;28;20449;-36
2023/05/26 04:51:14;;;;;;;;;;;;;;;21.10;57.14;99660.22;5091160;28;19912;-35
2023/05/26 04:53:39;;;;;;;;;;;;;;;21.22;56.51;99630.94;5088965;28;19983;-36
2023/05/26 04:56:06;;;;;;;;;;;;;;;21.29;55.78;99657.72;5090166;28;19916;-36
2023/05/26 04:58:36;;;;;;;;;;;;;;;21.34;55.89;99654.97;5089679;28;19920;-36
2023/05/26 05:01:02;;;;;;;;;;;;;;;21.40;57.85;99662.00;5089769;28;19912;-36
2023/05/26 05:03:28;;;;;;;;;;;;;;;21.54;55.82;99659.53;5088289;28;19934;-36
2023/05/26 05:05:54;;;;;;;;;;;;;;;21.57;55.47;99668.97;5090111;28;19916;-36
2023/05/26 05:08:19;;;;;;;;;;;;;;;21.64;55.15;99654.06;5089426;28;20176;-36
2023/05/26 05:10:44;;;;;;;;;;;;;;;21.78;54.99;99653.44;5089910;28;19923;-36
2023/05/26 05:13:10;;;;;;;;;;;;;;;21.81;54.83;99659.09;5090701;28;20319;-36
2023/05/26 05:15:35;;;;;;;;;;;;;;;21.93;56.26;99655.25;5091037;28;19912;-36
2023/05/26 05:18:02;;;;;;;;;;;;;;;21.76;54.79;99653.75;5090800;28;19916;-36
2023/05/26 05:20:27;;;;;;;;;;;;;;;21.70;54.39;99649.41;5091182;28;20311;-37
2023/05/26 05:22:53;;;;;;;;;;;;;;;21.32;54.45;99653.63;5091084;28;19998;-35
2023/05/26 05:25:18;;;;;;;;;;;;;;;21.44;54.51;99646.84;5080849;28;20378;-35
2023/05/26 05:27:44;;;;;;;;;;;;;;;21.27;55.38;99658.00;5090213;28;19916;-36
2023/05/26 05:30:10;;;;;;;;;;;;;;;21.18;54.43;99656.94;5091121;28;19927;-36
2023/05/26 05:32:35;;;;;;;;;;;;;;;21.33;54.17;99661.47;5091171;28;20391;-36
2023/05/26 05:35:00;;;;;;;;;;;;;;;21.39;54.48;99654.97;5082047;28;19969;-36
2023/05/26 05:37:26;;;;;;;;;;;;;;;21.56;53.92;99659.25;5090873;28;19912;-37
2023/05/26 05:39:51;;;;;;;;;;;;;;;21.78;53.18;99661.56;5090983;28;19920;-37
2023/05/26 05:42:16;;;;;;;;;;;;;;;21.84;59.52;99658.56;5087535;28;19940;-35
2023/05/26 05:44:42;;;;;;;;;;;;;;;21.36;54.80;99652.81;5088978;28;19916;-36
2023/05/26 05:47:07;;;;;;;;;;;;;;;21.57;54.15;99658.16;5085246;28;20371;-36
2023/05/26 05:49:32;;;;;;;;;;;;;;;21.60;53.94;99654.91;5091345;28;20300;-36
2023/05/26 05:51:58;;;;;;;;;;;;;;;21.64;53.88;99654.06;5079594;28;20298;-36
2023/05/26 05:54:23;;;;;;;;;;;;;;;22.02;52.51;99653.56;5086260;28;19924;-38
2023/05/26 05:56:48;;;;;;;;;;;;;;;22.18;52.64;99665.09;5090371;28;19912;-36
2023/05/26 05:59:13;;;;;;;;;;;;;;;22.49;52.09;99656.78;5090765;28;19947;-35
2023/05/26 06:01:39;;;;;;;;;;;;;;;22.75;51.87;99651.91;5089467;28;19930;-36
2023/05/26 06:04:04;;;;;;;;;;;;;;;22.51;52.31;99649.97;5111101;28;20365;-38
2023/05/26 06:06:31;;;;;;;;;;;;;;;22.63;51.67;99650.38;5110740;28;19915;-37
2023/05/26 06:08:56;;;;;;;;;;;;;;;22.11;52.48;99640.25;5109695;28;20089;-37
2023/05/26 06:11:22;;;;;;;;;;;;;;;22.25;52.12;99655.59;5109535;28;19991;-36
2023/05/26 06:13:47;;;;;;;;;;;;;;;22.21;52.05;99657.22;5109143;28;19915;-36
2023/05/26 06:16:12;;;;;;;;;;;;;;;22.20;51.69;99658.31;5109186;28;19922;-36
2023/05/26 06:18:38;;;;;;;;;;;;;;;22.42;51.35;99659.78;5109633;28;19920;-36
2023/05/26 06:21:03;;;;;;;;;;;;;;;21.90;52.10;99662.03;5109324;28;20317;-36
2023/05/26 06:23:29;;;;;;;;;;;;;;;22.32;51.95;99668.81;5109179;28;19912;-36
2023/05/26 06:25:54;;;;;;;;;;;;;;;22.63;51.28;99660.44;5110089;28;20289;-36
2023/05/26 06:28:19;;;;;;;;;;;;;;;22.72;50.91;99666.06;5110375;28;19923;-35
2023/05/26 06:30:45;;;;;;;;;;;;;;;23.09;49.79;99670.84;5111149;28;19915;-36
2023/05/26 06:33:10;;;;;;;;;;;;;;;23.20;49.31;99671.53;5111151;28;20338;-36
2023/05/26 06:35:35;;;;;;;;;;;;;;;23.12;49.66;99675.69;5110831;28;20321;-35
2023/05/26 06:38:00;;;;;;;;;;;;;;;23.26;49.94;99672.28;5110433;28;19943;-36
2023/05/26 06:40:26;;;;;;;;;;;;;;;23.11;50.07;99679.50;5111119;28;20002;-36
2023/05/26 06:42:51;;;;;;;;;;;;;;;23.29;49.78;99677.16;5110876;28;20018;-36
2023/05/26 06:45:16;;;;;;;;;;;;;;;22.78;51.06;99684.69;5110350;28;20314;-36
2023/05/26 06:47:41;;;;;;;;;;;;;;;22.78;51.52;99683.88;5110879;28;19951;-36
2023/05/26 06:50:07;;;;;;;;;;;;;;;22.56;52.55;99695.19;5110933;28;19994;-36
2023/05/26 06:52:32;;;;;;;;;;;;;;;21.15;57.37;99698.09;5110830;28;20286;-35
2023/05/26 06:54:57;;;;;;;;;;;;;;;20.68;59.63;99700.03;5110635;28;20295;-37
2023/05/26 06:57:23;;;;;;;;;;;;;;;21.06;59.45;99697.03;5110654;28;19916;-36
2023/05/26 06:59:48;;;;;;;;;;;;;;;20.69;61.37;99701.69;5110312;28;20034;-36
2023/05/26 07:02:13;;;;;;;;;;;;;;;21.23;60.31;99699.41;5110489;28;19912;-36
2023/05/26 07:04:39;;;;;;;;;;;;;;;21.01;61.97;99705.94;5110786;28;19919;-36
2023/05/26 07:07:04;;;;;;;;;;;;;;;21.12;61.04;99705.94;5110803;28;20407;-36
2023/05/26 07:09:29;;;;;;;;;;;;;;;21.51;59.21;99706.09;5110564;28;19911;-36
2023/05/26 07:11:55;;;;;;;;;;;;;;;21.27;59.24;99676.94;5110698;28;19916;-35
2023/05/26 07:14:20;;;;;;;;;;;;;;;21.70;58.32;99709.00;5110625;28;19916;-38
2023/05/26 07:16:45;;;;;;;;;;;;;;;22.27;57.79;99714.13;5110502;28;19916;-35
2023/05/26 07:19:11;;;;;;;;;;;;;;;23.13;54.63;99704.47;5110316;28;19912;-36
2023/05/26 07:21:36;;;;;;;;;;;;;;;23.65;51.93;99707.38;5110223;28;19912;-36
2023/05/26 07:24:01;;;;;;;;;;;;;;;23.81;50.76;99719.69;5110453;28;19911;-36
2023/05/26 07:26:26;;;;;;;;;;;;;;;23.93;49.39;99718.44;5110444;28;20008;-37
2023/05/26 07:28:52;;;;;;;;;;;;;;;24.17;48.73;99726.53;5110334;28;20346;-37
2023/05/26 07:31:18;;;;;;;;;;;;;;;23.88;49.09;99718.53;5111120;28;19927;-36
2023/05/26 07:33:44;;;;;;;;;;;;;;;23.41;51.38;99732.63;5113749;28;19985;-36
2023/05/26 07:36:09;;;;;;;;;;;;;;;23.44;51.50;99725.84;5114079;28;19912;-36
2023/05/26 07:38:34;;;;;;;;;;;;;;;23.90;51.15;99730.72;5114097;28;20020;-36
2023/05/26 07:41:00;;;;;;;;;;;;;;;24.14;50.68;99727.94;5113763;28;19919;-36
2023/05/26 07:43:25;;;;;;;;;;;;;;;24.52;47.89;99727.94;5113677;28;19912;-36
2023/05/26 07:45:50;;;;;;;;;;;;;;;24.73;47.17;99725.69;5113263;28;19950;-36
2023/05/26 07:48:15;;;;;;;;;;;;;;;24.49;47.04;99728.50;5113438;28;19998;-36
2023/05/26 07:50:41;;;;;;;;;;;;;;;24.52;47.65;99724.41;5113386;28;19958;-35
2023/05/26 07:53:06;;;;;;;;;;;;;;;24.69;47.67;99723.84;5113270;28;19923;-36
2023/05/26 07:55:32;;;;;;;;;;;;;;;24.73;48.07;99730.31;5113659;28;19911;-36
2023/05/26 07:57:57;;;;;;;;;;;;;;;24.88;46.86;99737.41;5113523;28;19960;-35
2023/05/26 08:00:22;;;;;;;;;;;;;;;24.22;48.24;99723.75;5113699;28;19938;-36
2023/05/26 08:02:48;;;;;;;;;;;;;;;24.98;46.59;99724.44;5113219;28;19911;-37
2023/05/26 08:05:13;;;;;;;;;;;;;;;25.15;45.77;99720.31;5113489;28;19912;-36
2023/05/26 08:07:38;;;;;;;;;;;;;;;25.75;44.40;99727.59;5113675;28;19919;-36
2023/05/26 08:10:04;;;;;;;;;;;;;;;26.00;44.91;99728.19;5113300;28;19911;-36
2023/05/26 08:12:29;;;;;;;;;;;;;;;26.43;44.13;99723.09;5111860;28;19912;-36
2023/05/26 08:14:55;;;;;;;;;;;;;;;26.39;43.28;99729.47;5112322;28;19933;-36
2023/05/26 08:17:20;;;;;;;;;;;;;;;26.68;42.75;99723.63;5112732;28;20454;-36
2023/05/26 08:19:45;;;;;;;;;;;;;;;26.94;42.42;99728.41;5113007;28;20303;-36
2023/05/26 08:22:11;;;;;;;;;;;;;;;27.12;40.72;99735.56;5112882;28;19912;-36
2023/05/26 08:24:36;;;;;;;;;;;;;;;27.13;40.06;99739.09;5113035;28;19977;-36
2023/05/26 08:27:01;;;;;;;;;;;;;;;26.92;40.63;99736.91;5113164;28;20328;-35
2023/05/26 08:29:27;;;;;;;;;;;;;;;26.51;41.91;99741.44;5112873;28;20010;-36
2023/05/26 08:31:52;;;;;;;;;;;;;;;26.44;42.60;99732.88;5113199;28;20379;-37
2023/05/26 08:34:18;;;;;;;;;;;;;;;26.30;42.95;99738.41;5112640;27;19961;-37
2023/05/26 08:36:43;;;;;;;;;;;;;;;26.17;46.32;99733.00;5112664;28;19947;-36
2023/05/26 08:39:09;;;;;;;;;;;;;;;25.70;48.08;99735.88;5112784;27;20372;-36
2023/05/26 08:41:41;;;;;;;;;;;;;;;25.31;49.03;99740.72;5112395;28;19915;-37
2023/05/26 08:44:07;;;;;;;;;;;;;;;25.49;48.79;99732.75;5111849;28;20272;-37
2023/05/26 08:46:32;;;;;;;;;;;;;;;25.25;49.18;99739.22;5112336;28;20006;-37
2023/05/26 08:48:58;;;;;;;;;;;;;;;24.84;50.12;99739.13;5112741;28;19959;-35
2023/05/26 08:51:23;;;;;;;;;;;;;;;25.08;49.20;99741.69;5112489;28;19911;-37
2023/05/26 08:53:49;;;;;;;;;;;;;;;25.28;48.34;99733.16;5112479;28;19922;-36
2023/05/26 08:56:15;;;;;;;;;;;;;;;25.16;48.44;99732.81;5112397;28;19912;-36
2023/05/26 08:58:42;;;;;;;;;;;;;;;25.22;47.94;99730.81;5112432;28;19915;-37
2023/05/26 09:01:08;;;;;;;;;;;;;;;25.16;46.99;99728.19;5111195;28;19951;-36
2023/05/26 09:03:33;;;;;;;;;;;;;;;25.16;47.88;99722.72;5096619;28;20402;-37
2023/05/26 09:05:58;;;;;;;;;;;;;;;24.99;48.54;99725.22;5092295;28;19919;-37
2023/05/26 09:08:24;;;;;;;;;;;;;;;25.01;48.61;99716.78;5091968;28;19948;-37
2023/05/26 09:10:49;;;;;;;;;;;;;;;24.52;49.50;99714.34;5092444;28;19920;-37
2023/05/26 09:13:15;;;;;;;;;;;;;;;24.92;48.81;99714.75;5091953;28;19974;-37
2023/05/26 09:15:41;;;;;;;;;;;;;;;24.55;49.20;99713.72;5091724;28;19989;-37
2023/05/26 09:18:10;;;;;;;;;;;;;;;23.93;51.13;99713.84;5091741;28;19951;-36
2023/05/26 09:20:39;;;;;;;;;;;;;;;23.93;49.98;99704.84;5091865;28;19943;-35
2023/05/26 09:23:04;;;;;;;;;;;;;;;24.07;50.77;99718.53;5092054;28;19923;-36
2023/05/26 09:25:33;;;;;;;;;;;;;;;23.79;50.72;99711.00;5091336;28;20445;-35
2023/05/26 09:28:02;;;;;;;;;;;;;;;23.95;48.90;99703.50;5091022;28;19943;-36
2023/05/26 09:30:29;;;;;;;;;;;;;;;23.97;48.97;99711.31;5091556;28;19982;-36
2023/05/26 09:32:54;;;;;;;;;;;;;;;24.15;48.07;99696.94;5091363;28;19947;-37
2023/05/26 09:35:20;;;;;;;;;;;;;;;24.35;48.23;99695.81;5091623;28;19943;-38
2023/05/26 09:37:45;;;;;;;;;;;;;;;24.66;47.52;99694.53;5090301;28;20017;-36
2023/05/26 09:40:14;;;;;;;;;;;;;;;24.38;48.80;99694.41;5091211;28;20443;-36
2023/05/26 09:42:45;;;;;;;;;;;;;;;24.80;45.65;99679.03;5091660;28;19920;-36
2023/05/26 09:45:11;;;;;;;;;;;;;;;25.17;43.04;99680.78;5091528;28;19970;-36
2023/05/26 09:47:36;;;;;;;;;;;;;;;25.41;43.16;99676.28;5091793;28;19912;-36
2023/05/26 09:50:03;;;;;;;;;;;;;;;25.18;42.79;99673.44;5081604;28;19985;-36
2023/05/26 09:52:29;;;;;;;;;;;;;;;25.82;40.72;99668.03;5078077;28;19923;-36
2023/05/26 09:54:55;;;;;;;;;;;;;;;26.26;41.26;99662.97;5083675;28;19920;-36
2023/05/26 09:57:20;;;;;;;;;;;;;;;26.45;41.44;99655.38;5087372;28;19928;-37
2023/05/26 09:59:49;;;;;;;;;;;;;;;27.04;40.50;99651.69;5090651;28;19973;-36
2023/05/26 10:02:20;;;;;;;;;;;;;;;26.84;39.81;99645.66;5089470;28;19912;-36
2023/05/26 10:04:46;;;;;;;;;;;;;;;27.22;38.45;99649.81;5088749;28;19915;-36
2023/05/26 10:07:12;;;;;;;;;;;;;;;27.23;37.09;99635.84;5090957;28;20064;-36
2023/05/26 10:09:38;;;;;;;;;;;;;;;27.62;36.75;99638.84;5090866;28;19919;-36
2023/05/26 10:12:03;;;;;;;;;;;;;;;27.92;35.62;99634.38;5090737;28;19969;-40
2023/05/26 10:14:29;;;;;;;;;;;;;;;28.61;34.04;99640.91;5090066;28;20425;-40
2023/05/26 10:16:55;;;;;;;;;;;;;;;28.66;35.73;99630.56;5090826;28;20418;-41
2023/05/26 10:19:21;;;;;;;;;;;;;;;27.85;36.68;99634.03;5090590;28;20303;-41
2023/05/26 10:21:52;;;;;;;;;;;;;;;28.34;36.58;99625.66;5091067;28;20007;-41
2023/05/26 10:24:23;;;;;;;;;;;;;;;28.90;35.01;99628.38;5091535;28;19916;-42
2023/05/26 10:26:58;;;;;;;;;;;;;;;29.10;34.53;99615.91;5088846;28;19923;-41
2023/05/26 10:29:30;;;;;;;;;;;;;;;29.05;35.21;99612.22;5090663;28;19920;-41
2023/05/26 10:31:55;;;;;;;;;;;;;;;30.23;32.33;99597.81;5090490;28;20020;-41
2023/05/26 10:34:37;;;;;;;;;;;;;;;30.79;32.42;99603.66;5103896;28;20564;-41
2023/05/26 10:37:11;;;;;;;;;;;;;;;30.80;31.42;99594.25;5111143;28;19961;-42
2023/05/26 10:39:36;;;;;;;;;;;;;;;30.91;30.33;99583.66;5111004;28;19912;-42
2023/05/26 10:42:14;;;;;;;;;;;;;;;31.04;31.69;99584.44;5111017;28;19924;-41
2023/05/26 10:44:41;;;;;;;;;;;;;;;31.22;30.95;99583.03;5101897;28;19930;-40
2023/05/26 10:47:06;;;;;;;;;;;;;;;31.58;30.37;99542.88;5090429;28;19959;-36
2023/05/26 10:49:35;;;;;;;;;;;;;;;31.68;30.47;99578.16;5090918;28;19956;-41
2023/05/26 10:52:09;;;;;;;;;;;;;;;31.61;29.58;99572.44;5091165;28;19916;-40
2023/05/26 10:54:35;;;;;;;;;;;;;;;31.28;30.35;99567.94;5089953;28;19916;-41
2023/05/26 10:57:00;;;;;;;;;;;;;;;32.39;29.27;99566.69;5089340;28;19939;-41
2023/05/26 10:59:30;;;;;;;;;;;;;;;32.39;27.58;99564.75;5090565;28;19912;-41
2023/05/26 11:01:55;;;;;;;;;;;;;;;32.82;26.92;99562.25;5090221;28;19916;-40
2023/05/26 11:04:21;;;;;;;;;;;;;;;33.55;26.21;99551.66;5090048;28;19973;-41
2023/05/26 11:06:48;;;;;;;;;;;;;;;33.96;24.97;99541.06;5093370;28;19912;-40
2023/05/26 11:09:14;;;;;;;;;;;;;;;33.19;26.24;99534.38;5094403;28;19922;-42
2023/05/26 11:11:49;;;;;;;;;;;;;;;33.02;27.78;99533.59;5094593;28;20007;-41
2023/05/26 11:14:15;;;;;;;;;;;;;;;33.46;27.48;99535.34;5094328;28;19916;-42
2023/05/26 11:16:43;;;;;;;;;;;;;;;34.24;25.23;99525.03;5093895;28;19916;-41
2023/05/26 11:19:10;;;;;;;;;;;;;;;34.61;24.30;99516.13;5094170;28;19911;-41
2023/05/26 11:21:36;;;;;;;;;;;;;;;33.97;25.39;99521.38;5094443;28;19912;-41
2023/05/26 11:24:05;;;;;;;;;;;;;;;34.60;25.12;99514.56;5094524;28;19918;-41
2023/05/26 11:26:31;;;;;;;;;;;;;;;33.86;25.01;99514.88;5093893;28;20374;-41
2023/05/26 11:28:57;;;;;;;;;;;;;;;33.57;24.99;99505.22;5094271;28;19933;-40
2023/05/26 11:31:25;;;;;;;;;;;;;;;33.48;25.44;99514.50;5094015;28;20030;-41
2023/05/26 11:33:50;;;;;;;;;;;;;;;33.87;24.92;99500.72;5093793;28;19931;-42
2023/05/26 11:36:17;;;;;;;;;;;;;;;34.55;24.16;99505.78;5093631;28;19912;-41
2023/05/26 11:38:43;;;;;;;;;;;;;;;34.11;25.82;99500.72;5094374;28;20029;-41
2023/05/26 11:41:10;;;;;;;;;;;;;;;34.91;24.80;99496.09;5081439;28;20023;-40
2023/05/26 11:43:35;;;;;;;;;;;;;;;35.18;23.80;99496.06;5078292;28;19940;-36
2023/05/26 11:46:02;;;;;;;;;;;;;;;35.71;23.16;99489.59;5093917;28;19958;-40
2023/05/26 11:48:34;;;;;;;;;;;;;;;35.12;23.67;99487.28;5093144;28;19924;-36
2023/05/26 11:51:00;;;;;;;;;;;;;;;35.13;23.37;99488.06;5093785;28;19919;-36
2023/05/26 11:53:28;;;;;;;;;;;;;;;34.60;23.29;99488.91;5093459;28;20275;-41
2023/05/26 11:56:00;;;;;;;;;;;;;;;35.04;23.40;99480.84;5093811;28;19916;-41
2023/05/26 11:58:25;;;;;;;;;;;;;;;34.01;24.09;99477.28;5093548;28;19922;-42
2023/05/26 12:00:55;;;;;;;;;;;;;;;33.13;24.81;99461.38;5093242;28;20401;-41
2023/05/26 12:03:20;;;;;;;;;;;;;;;33.99;25.56;99454.78;5093054;28;19926;-41
2023/05/26 12:05:46;;;;;;;;;;;;;;;34.50;24.40;99454.44;5092887;28;19912;-47
2023/05/26 12:08:11;;;;;;;;;;;;;;;33.47;25.29;99448.69;5092637;28;20399;-47
2023/05/26 12:10:40;;;;;;;;;;;;;;;33.34;25.39;99438.97;5092913;28;19955;-45
2023/05/26 12:13:05;;;;;;;;;;;;;;;33.91;24.42;99444.75;5092318;28;19928;-47
2023/05/26 12:15:31;;;;;;;;;;;;;;;33.93;24.59;99439.66;5092852;28;19919;-45
2023/05/26 12:17:57;;;;;;;;;;;;;;;33.52;25.22;99442.09;5093197;28;19912;-45
2023/05/26 12:20:23;;;;;;;;;;;;;;;34.14;24.47;99442.81;5092535;28;19916;-47
2023/05/26 12:22:52;;;;;;;;;;;;;;;33.60;24.42;99446.56;5092761;28;19956;-47
2023/05/26 12:25:23;;;;;;;;;;;;;;;33.04;25.11;99442.31;5090615;28;19912;-47
2023/05/26 12:27:48;;;;;;;;;;;;;;;32.62;26.42;99442.97;5092705;28;19991;-47
2023/05/26 12:30:18;;;;;;;;;;;;;;;32.85;26.65;99443.09;5091771;28;20423;-46
2023/05/26 12:32:43;;;;;;;;;;;;;;;32.59;26.74;99449.97;5090645;28;20002;-46
2023/05/26 12:35:08;;;;;;;;;;;;;;;33.75;25.77;99447.66;5091989;28;20051;-46
2023/05/26 12:37:34;;;;;;;;;;;;;;;34.36;24.34;99448.69;5089329;28;19916;-43
2023/05/26 12:40:00;;;;;;;;;;;;;;;34.37;23.93;99453.84;5090158;28;20323;-46
2023/05/26 12:42:25;;;;;;;;;;;;;;;33.30;25.79;99447.16;5089002;28;20349;-46